Time;durP1;ratioP1;P1;durP2;ratioP2;P2;SDS_P1;SDS_P2;PMS_P1;PMS_P2;Temp;Humidity;BMP_temperature;BMP_pressure;BME280_temperature;BME280_humidity;BME280_pressure;Samples;Min_cycle;Max_cycle;Signal;HPM_P1;HPM_P2
2021/12/24 00:00:10;;;;;;;32.33;16.20;;;;;;;-9.92;84.56;139877.39;1672108;84;21051;-64
2021/12/24 00:02:38;;;;;;;30.92;14.58;;;;;;;-9.94;84.85;139871.23;1672337;86;21040;-62
2021/12/24 00:05:06;;;;;;;29.55;16.73;;;;;;;-9.93;84.98;139873.67;1672083;86;21052;-63
2021/12/24 00:07:35;;;;;;;31.50;16.42;;;;;;;-9.93;85.01;139874.91;1672321;86;21108;-57
2021/12/24 00:10:03;;;;;;;29.27;16.30;;;;;;;-9.86;85.08;139890.92;1671997;84;21554;-64
2021/12/24 00:12:33;;;;;;;36.58;17.30;;;;;;;-9.84;84.91;139897.08;1672284;84;21079;-58
2021/12/24 00:15:06;;;;;;;33.48;15.95;;;;;;;-9.86;84.96;139892.16;1671928;84;21104;-58
2021/12/24 00:17:31;;;;;;;31.02;14.95;;;;;;;-9.88;85.08;139885.98;1671530;85;21064;-57
2021/12/24 00:23:14;;;;;;;28.32;15.53;;;;;;;-9.80;85.12;139904.47;1672203;84;21055;-59
2021/12/24 00:36:17;;;;;;;32.03;14.18;;;;;;;-9.50;84.26;139977.13;1671956;84;21172;-59
2021/12/24 00:38:44;;;;;;;30.02;14.53;;;;;;;-9.52;84.01;139973.42;1672014;84;21135;-61
2021/12/24 00:41:10;;;;;;;28.20;14.38;;;;;;;-9.57;84.08;139961.09;1672120;84;21056;-64
2021/12/24 00:43:36;;;;;;;27.62;14.47;;;;;;;-9.61;84.37;139951.28;1672395;84;21045;-65
2021/12/24 00:46:02;;;;;;;28.17;15.00;;;;;;;-9.62;84.64;139950.00;1672407;84;21077;-64
2021/12/24 00:48:29;;;;;;;26.07;13.78;;;;;;;-9.56;84.48;139962.38;1672146;84;21087;-62
2021/12/24 00:51:18;;;;;;;25.82;13.43;;;;;;;-9.60;84.69;139953.72;1672198;84;21051;-59
2021/12/24 00:56:13;;;;;;;27.77;14.03;;;;;;;-9.55;84.75;139966.03;1672162;84;21111;-60
2021/12/24 00:58:41;;;;;;;31.82;16.27;;;;;;;-9.54;84.76;139968.53;1672342;84;21598;-58
2021/12/24 01:01:11;;;;;;;36.15;15.40;;;;;;;-9.58;84.81;139957.44;1672344;86;21053;-62
2021/12/24 01:03:38;;;;;;;28.38;14.93;;;;;;;-9.65;84.93;139941.41;1672458;84;21076;-60
2021/12/24 01:06:06;;;;;;;35.28;15.10;;;;;;;-9.62;85.07;139948.78;1672187;84;21534;-60
2021/12/24 01:08:34;;;;;;;26.97;13.90;;;;;;;-9.70;85.08;139929.09;1672486;84;21540;-60
2021/12/24 01:11:04;;;;;;;29.20;12.70;;;;;;;-9.73;85.42;139921.72;1672276;84;21566;-63
2021/12/24 01:13:31;;;;;;;26.75;13.98;;;;;;;-9.77;85.39;139911.84;1672324;84;21097;-62
2021/12/24 01:16:02;;;;;;;27.60;14.68;;;;;;;-9.87;85.68;139889.70;1672320;86;21487;-62
2021/12/24 01:23:37;;;;;;;25.72;11.45;;;;;;;-10.03;86.47;139850.28;1651643;84;21048;-59
2021/12/24 01:26:05;;;;;;;29.72;15.18;;;;;;;-10.05;86.80;139845.34;1671430;84;21096;-65
2021/12/24 01:39:24;;;;;;;38.00;15.30;;;;;;;-10.02;87.02;139852.77;1672377;86;21041;-60
2021/12/24 01:44:35;;;;;;;31.68;15.38;;;;;;;-10.11;87.41;139830.59;1672203;86;21595;-60
2021/12/24 01:47:07;;;;;;;29.05;13.95;;;;;;;-10.11;87.43;139830.59;1671918;84;21029;-61
2021/12/24 01:49:35;;;;;;;28.80;14.50;;;;;;;-10.14;87.37;139823.22;1672251;84;21038;-62
2021/12/24 01:52:04;;;;;;;27.02;13.80;;;;;;;-10.20;87.42;139809.69;1672383;84;21053;-59
2021/12/24 01:54:33;;;;;;;25.52;12.78;;;;;;;-10.21;87.53;139807.19;1672014;84;21086;-58
2021/12/24 01:56:59;;;;;;;33.63;14.87;;;;;;;-10.27;87.79;139792.44;1672165;84;21052;-57
2021/12/24 01:59:26;;;;;;;28.90;13.58;;;;;;;-10.32;87.97;139781.41;1672346;84;21526;-60
2021/12/24 02:01:53;;;;;;;24.43;13.32;;;;;;;-10.34;88.18;139776.47;1672329;84;21044;-58
2021/12/24 02:04:21;;;;;;;34.38;15.68;;;;;;;-10.36;88.22;139770.31;1672128;86;21021;-59
2021/12/24 02:06:49;;;;;;;29.25;12.53;;;;;;;-10.45;88.44;139748.19;1672292;84;21017;-60
2021/12/24 02:09:16;;;;;;;35.43;15.40;;;;;;;-10.48;88.66;139742.03;1672282;84;21039;-60
2021/12/24 02:11:44;;;;;;;28.25;13.70;;;;;;;-10.53;88.79;139729.69;1672336;84;21009;-62
2021/12/24 02:14:15;;;;;;;23.00;12.10;;;;;;;-10.58;89.04;139717.38;1672285;84;21048;-61
2021/12/24 02:30:03;;;;;;;28.83;13.18;;;;;;;-10.81;89.82;139663.28;1672262;86;21017;-58
2021/12/24 02:32:30;;;;;;;25.43;13.35;;;;;;;-10.90;90.10;139641.13;1672070;84;21051;-59
2021/12/24 02:34:58;;;;;;;28.62;14.38;;;;;;;-10.93;90.46;139633.75;1672082;84;21072;-64
2021/12/24 02:37:24;;;;;;;31.48;14.78;;;;;;;-10.92;90.47;139637.42;1672382;84;21080;-63
2021/12/24 02:39:51;;;;;;;25.20;13.35;;;;;;;-10.92;90.50;139636.19;1672277;84;21574;-62
2021/12/24 02:42:21;;;;;;;25.92;12.05;;;;;;;-10.96;90.51;139626.38;1672333;84;21672;-60
2021/12/24 02:44:50;;;;;;;23.32;11.93;;;;;;;-10.99;90.71;139618.97;1672056;84;21135;-63
2021/12/24 02:55:11;;;;;;;31.12;14.45;;;;;;;-11.06;91.29;139601.78;1672030;84;21085;-60
2021/12/24 02:57:39;;;;;;;22.40;12.47;;;;;;;-11.06;91.45;139601.78;1671276;85;21049;-60
2021/12/24 03:00:15;;;;;;;29.30;11.93;;;;;;;-11.06;91.52;139603.00;1667994;85;21059;-61
2021/12/24 03:02:46;;;;;;;23.95;12.68;;;;;;;-11.04;91.50;139606.66;1668055;85;21061;-59
2021/12/24 03:05:14;;;;;;;22.98;11.10;;;;;;;-11.05;91.64;139604.22;1668107;86;21048;-58
2021/12/24 03:07:42;;;;;;;22.27;11.60;;;;;;;-11.09;91.74;139594.37;1667699;85;21053;-61
2021/12/24 03:10:14;;;;;;;28.50;13.48;;;;;;;-11.08;91.92;139598.08;1667698;85;21068;-59
2021/12/24 03:12:43;;;;;;;29.87;11.75;;;;;;;-11.05;92.04;139605.45;1668017;85;21028;-58
2021/12/24 03:15:12;;;;;;;26.87;13.95;;;;;;;-11.06;91.93;139603.00;1667691;85;21049;-59
2021/12/24 03:17:49;;;;;;;25.62;12.05;;;;;;;-11.04;91.90;139606.66;1668002;85;21514;-61
2021/12/24 03:20:10;;;;;;;28.55;13.30;;;;;;;-11.08;92.03;139596.86;1666445;85;21025;-59
2021/12/24 03:25:15;;;;;;;34.10;11.90;;;;;;;-11.12;92.37;139587.00;1667760;85;21056;-62
2021/12/24 03:27:44;;;;;;;24.37;12.03;;;;;;;-11.11;92.52;139590.72;1667992;85;21036;-57
2021/12/24 03:30:13;;;;;;;31.00;14.15;;;;;;;-11.13;92.61;139584.56;1667736;85;21044;-57
2021/12/24 03:32:40;;;;;;;30.70;12.50;;;;;;;-11.09;92.76;139594.37;1667925;85;21064;-62
2021/12/24 03:35:07;;;;;;;23.57;12.43;;;;;;;-11.07;92.66;139599.30;1667871;85;21041;-60
2021/12/24 03:37:35;;;;;;;25.48;12.23;;;;;;;-11.09;92.63;139594.37;1667872;85;21061;-60
2021/12/24 03:40:04;;;;;;;31.00;11.75;;;;;;;-11.08;92.76;139598.08;1667972;86;21036;-61
2021/12/24 03:42:32;;;;;;;25.88;13.05;;;;;;;-11.06;92.71;139601.78;1667904;85;21028;-59
2021/12/24 03:45:08;;;;;;;24.75;12.78;;;;;;;-11.03;92.64;139610.38;1667640;85;21081;-61
2021/12/24 03:47:33;;;;;;;29.75;13.50;;;;;;;-10.99;92.64;139618.97;1666839;85;21578;-61
2021/12/24 03:49:57;;;;;;;27.93;12.15;;;;;;;-10.99;92.52;139620.23;1667333;85;21183;-62
2021/12/24 03:55:10;;;;;;;25.32;12.53;;;;;;;-10.99;92.70;139618.97;1667754;85;21045;-60
2021/12/24 03:57:41;;;;;;;19.73;11.03;;;;;;;-10.98;92.71;139621.45;1667238;85;21108;-62
2021/12/24 04:00:29;;;;;;;27.22;12.33;;;;;;;-10.98;92.70;139622.67;1660956;85;21097;-63
2021/12/24 04:02:57;;;;;;;29.12;12.90;;;;;;;-10.93;92.66;139633.75;1660158;85;21613;-63
2021/12/24 04:05:39;;;;;;;27.32;12.55;;;;;;;-10.93;92.53;139633.75;1661191;85;21538;-61
2021/12/24 04:08:24;;;;;;;23.18;11.40;;;;;;;-10.91;92.44;139638.69;1661165;85;21594;-58
2021/12/24 04:10:53;;;;;;;26.62;11.22;;;;;;;-10.90;92.43;139641.13;1660132;85;21068;-60
2021/12/24 04:13:27;;;;;;;26.75;13.55;;;;;;;-10.89;92.38;139642.34;1660686;86;21088;-59
2021/12/24 04:15:54;;;;;;;27.75;13.03;;;;;;;-10.91;92.40;139638.69;1661132;85;21405;-63
2021/12/24 04:26:23;;;;;;;24.05;12.65;;;;;;;-10.81;92.13;139663.28;1661079;85;21089;-59
2021/12/24 04:28:49;;;;;;;24.77;13.38;;;;;;;-10.81;92.07;139663.28;1661396;85;21061;-62
2021/12/24 04:31:18;;;;;;;26.93;12.75;;;;;;;-10.83;92.12;139658.36;1661421;85;21045;-59
2021/12/24 04:33:49;;;;;;;26.07;13.17;;;;;;;-10.81;92.15;139663.28;1661626;85;21529;-57
2021/12/24 04:36:37;;;;;;;28.32;12.95;;;;;;;-10.80;92.09;139665.72;1661109;85;21337;-62
2021/12/24 05:03:25;;;;;;;29.27;13.68;;;;;;;-10.71;91.80;139686.63;1661097;85;21061;-59
2021/12/24 05:05:48;;;;;;;32.88;13.30;;;;;;;-10.71;91.78;139686.63;1659930;85;21088;-62
2021/12/24 05:10:42;;;;;;;30.40;13.83;;;;;;;-10.67;91.71;139695.27;1661287;85;21542;-62
2021/12/24 05:13:14;;;;;;;30.05;13.85;;;;;;;-10.66;91.61;139697.70;1661215;85;21022;-61
2021/12/24 05:16:06;;;;;;;23.32;12.37;;;;;;;-10.66;91.54;139698.92;1661276;86;21144;-57
2021/12/24 05:21:32;;;;;;;27.07;14.63;;;;;;;-10.66;91.56;139697.70;1660751;85;21053;-59
2021/12/24 05:21:42;;;;;;;34.10;13.68;;;;;;;-10.64;91.66;139702.64;1661328;85;21538;-60
2021/12/24 05:24:08;;;;;;;26.70;11.83;;;;;;;-10.62;91.60;139707.56;1660996;85;21029;-60
2021/12/24 05:26:36;;;;;;;23.75;11.75;;;;;;;-10.62;91.54;139707.56;1661267;86;21045;-63
2021/12/24 05:29:05;;;;;;;27.15;12.73;;;;;;;-10.63;91.57;139705.08;1661025;85;21065;-60
2021/12/24 05:31:33;;;;;;;29.07;14.38;;;;;;;-10.60;91.56;139713.72;1661221;85;21065;-62
2021/12/24 05:34:00;;;;;;;26.62;12.50;;;;;;;-10.54;91.39;139727.25;1661155;85;21061;-57
2021/12/24 05:36:26;;;;;;;19.87;10.28;;;;;;;-10.51;91.24;139735.84;1661262;86;21013;-58
2021/12/24 05:38:53;;;;;;;26.35;12.80;;;;;;;-10.49;91.08;139740.77;1661153;85;21053;-63
2021/12/24 05:41:24;;;;;;;27.27;13.13;;;;;;;-10.46;91.07;139745.70;1661208;86;21105;-60
2021/12/24 05:43:49;;;;;;;30.55;13.72;;;;;;;-10.44;90.88;139751.86;1660622;85;21082;-56
2021/12/24 05:46:15;;;;;;;28.52;13.40;;;;;;;-10.39;90.85;139762.94;1661242;85;21088;-56
2021/12/24 05:48:47;;;;;;;24.55;12.98;;;;;;;-10.37;90.59;139769.09;1660587;86;21182;-61
2021/12/24 05:51:14;;;;;;;28.90;14.30;;;;;;;-10.33;90.63;139777.69;1661204;85;21197;-63
2021/12/24 05:53:48;;;;;;;34.30;13.58;;;;;;;-10.28;90.39;139790.00;1661027;86;21085;-64
2021/12/24 05:56:19;;;;;;;27.10;13.62;;;;;;;-10.24;90.26;139798.59;1661459;85;21053;-60
2021/12/24 05:58:47;;;;;;;28.05;13.90;;;;;;;-10.22;90.03;139803.53;1662964;85;21108;-60
2021/12/24 06:01:15;;;;;;;30.27;14.63;;;;;;;-10.20;90.13;139808.41;1668176;85;21590;-57
2021/12/24 06:03:43;;;;;;;27.50;12.85;;;;;;;-10.14;90.02;139823.22;1667810;85;21559;-59
2021/12/24 06:06:10;;;;;;;25.97;12.93;;;;;;;-10.09;89.72;139836.75;1667698;85;21060;-59
2021/12/24 06:08:36;;;;;;;31.60;14.63;;;;;;;-10.10;89.59;139834.30;1668002;85;21037;-60
2021/12/24 06:11:02;;;;;;;30.15;13.72;;;;;;;-10.10;89.72;139834.30;1667674;85;21570;-58
2021/12/24 06:13:29;;;;;;;27.22;12.25;;;;;;;-10.05;89.82;139845.34;1667706;86;21065;-61
2021/12/24 06:15:56;;;;;;;27.82;11.90;;;;;;;-10.06;89.81;139842.91;1667985;85;21101;-59
2021/12/24 06:18:26;;;;;;;25.27;12.07;;;;;;;-10.05;90.01;139845.34;1667983;85;21103;-65
2021/12/24 06:20:53;;;;;;;26.75;14.23;;;;;;;-10.00;90.01;139857.66;1667844;85;21090;-61
2021/12/24 06:23:22;;;;;;;31.42;14.03;;;;;;;-9.98;90.02;139862.59;1667929;85;21068;-61
2021/12/24 06:25:50;;;;;;;27.82;14.90;;;;;;;-9.95;90.15;139869.97;1667654;85;21097;-57
2021/12/24 06:28:17;;;;;;;33.95;14.45;;;;;;;-9.87;90.12;139889.70;1668058;85;21031;-60
2021/12/24 06:30:43;;;;;;;27.45;13.18;;;;;;;-9.79;89.94;139906.91;1667643;85;21101;-60
2021/12/24 06:33:10;;;;;;;29.92;14.40;;;;;;;-9.81;89.84;139902.02;1666795;86;21013;-56
2021/12/24 06:35:37;;;;;;;29.95;14.15;;;;;;;-9.75;90.05;139916.78;1660811;86;21092;-61
2021/12/24 06:38:04;;;;;;;27.50;14.53;;;;;;;-9.71;89.90;139926.64;1660384;85;21061;-58
2021/12/24 06:40:32;;;;;;;28.38;15.05;;;;;;;-9.69;89.92;139932.80;1653643;86;21163;-61
2021/12/24 06:42:58;;;;;;;28.45;13.18;;;;;;;-9.64;89.93;139943.84;1653948;85;21064;-62
2021/12/24 06:45:26;;;;;;;29.45;13.93;;;;;;;-9.64;89.97;139943.84;1653948;85;21045;-59
2021/12/24 06:47:55;;;;;;;34.50;15.20;;;;;;;-9.57;90.03;139961.09;1653808;86;21056;-62
2021/12/24 06:50:22;;;;;;;26.60;14.05;;;;;;;-9.49;89.96;139979.58;1653618;85;21113;-63
2021/12/24 06:52:49;;;;;;;26.82;14.05;;;;;;;-9.46;89.76;139988.22;1653583;87;21069;-62
2021/12/24 06:55:18;;;;;;;30.82;15.48;;;;;;;-9.40;89.68;140002.98;1656215;85;21275;-57
2021/12/24 06:57:46;;;;;;;30.32;14.40;;;;;;;-9.40;89.48;140002.98;1667886;85;21506;-58
2021/12/24 07:00:17;;;;;;;33.63;15.40;;;;;;;-9.37;89.57;140007.92;1628712;87;21602;-58
2021/12/24 07:02:45;;;;;;;27.60;13.53;;;;;;;-9.38;89.56;140006.70;1638923;86;21064;-58
2021/12/24 07:05:13;;;;;;;24.90;13.48;;;;;;;-9.38;89.70;140006.70;1608364;88;21031;-62
2021/12/24 07:07:40;;;;;;;29.12;13.38;;;;;;;-9.41;89.64;140000.55;1608298;88;21067;-59
2021/12/24 07:10:07;;;;;;;26.95;13.48;;;;;;;-9.46;89.94;139988.22;1602465;89;21062;-62
2021/12/24 07:12:34;;;;;;;29.18;14.25;;;;;;;-9.45;90.20;139990.67;1586697;89;21571;-60
2021/12/24 07:15:01;;;;;;;29.85;15.60;;;;;;;-9.40;90.27;140002.98;1566780;90;21059;-60
2021/12/24 07:17:28;;;;;;;29.02;15.65;;;;;;;-9.37;90.29;140007.92;1602533;88;21037;-61
2021/12/24 07:19:54;;;;;;;31.42;13.85;;;;;;;-9.31;90.28;140022.69;1604391;88;21055;-60
2021/12/24 07:22:20;;;;;;;35.30;15.13;;;;;;;-9.28;90.30;140030.12;1608466;89;21020;-59
2021/12/24 07:24:47;;;;;;;30.55;16.65;;;;;;;-9.28;90.37;140030.12;1604216;88;21115;-65
2021/12/24 07:27:14;;;;;;;30.02;15.25;;;;;;;-9.27;90.44;140032.56;1602226;89;21067;-58
2021/12/24 07:29:40;;;;;;;39.00;17.05;;;;;;;-9.25;90.53;140037.50;1585754;90;21028;-62
2021/12/24 07:32:07;;;;;;;38.02;15.23;;;;;;;-9.20;90.51;140049.83;1585994;89;21014;-59
2021/12/24 07:34:34;;;;;;;33.80;15.00;;;;;;;-9.15;90.53;140062.14;1586936;89;21065;-60
2021/12/24 07:37:01;;;;;;;33.33;15.68;;;;;;;-9.16;90.58;140059.66;1585162;89;21114;-64
2021/12/24 07:39:28;;;;;;;35.13;17.02;;;;;;;-9.15;90.77;140062.14;1585792;90;21475;-60
2021/12/24 07:41:54;;;;;;;43.48;18.65;;;;;;;-9.14;90.90;140064.59;1569867;90;21105;-58
2021/12/24 07:44:22;;;;;;;49.98;22.35;;;;;;;-9.10;90.98;140074.47;1581877;89;21077;-62
2021/12/24 07:46:56;;;;;;;37.38;18.67;;;;;;;-9.08;91.05;140079.41;1581816;89;21891;-63
2021/12/24 07:49:29;;;;;;;41.65;18.65;;;;;;;-9.07;91.02;140081.86;1569667;90;21040;-61
2021/12/24 07:52:05;;;;;;;33.85;14.95;;;;;;;-9.02;91.17;140094.17;1578328;89;21081;-67
2021/12/24 07:54:26;;;;;;;35.90;14.03;;;;;;;-8.99;91.09;140101.56;1598965;88;21182;-58
2021/12/24 07:56:53;;;;;;;35.10;16.75;;;;;;;-8.97;91.01;140106.50;1585484;90;21009;-64
2021/12/24 07:59:20;;;;;;;35.95;16.90;;;;;;;-8.96;91.09;140108.94;1576151;88;21118;-67
2021/12/24 08:01:47;;;;;;;34.50;17.45;;;;;;;-8.88;91.19;140126.22;1599649;88;21664;-63
2021/12/24 08:04:15;;;;;;;35.05;18.42;;;;;;;-8.84;91.01;140136.09;1601877;88;21019;-62
2021/12/24 08:06:41;;;;;;;36.48;18.35;;;;;;;-8.82;91.05;140141.03;1616819;87;21144;-65
2021/12/24 08:09:10;;;;;;;36.00;17.75;;;;;;;-8.76;90.90;140157.03;1605330;88;21071;-65
2021/12/24 08:11:37;;;;;;;32.45;16.97;;;;;;;-8.71;90.77;140168.13;1616132;87;21323;-61
2021/12/24 08:14:05;;;;;;;32.25;15.93;;;;;;;-8.67;90.75;140178.00;1632279;87;21493;-66
2021/12/24 08:16:33;;;;;;;36.85;17.07;;;;;;;-8.67;90.65;140176.78;1617070;88;21067;-66
2021/12/24 08:19:02;;;;;;;39.73;17.52;;;;;;;-8.62;90.62;140190.34;1617644;87;21036;-60
2021/12/24 08:21:30;;;;;;;39.83;18.23;;;;;;;-8.57;90.57;140202.67;1598548;88;21094;-60
2021/12/24 08:23:57;;;;;;;35.80;16.75;;;;;;;-8.49;90.33;140221.16;1601302;88;21113;-70
2021/12/24 08:26:23;;;;;;;40.30;18.55;;;;;;;-8.42;90.30;140238.44;1601523;88;21114;-69
2021/12/24 08:28:51;;;;;;;32.88;15.40;;;;;;;-8.35;90.18;140254.39;1601269;88;21077;-60
2021/12/24 08:31:18;;;;;;;29.02;14.85;;;;;;;-8.34;90.05;140258.09;1600841;90;21077;-63
2021/12/24 08:33:45;;;;;;;34.58;17.48;;;;;;;-8.32;90.03;140263.05;1601177;88;21132;-65
2021/12/24 08:36:11;;;;;;;36.00;17.23;;;;;;;-8.26;90.00;140276.59;1601375;88;21049;-67
2021/12/24 08:38:39;;;;;;;42.60;19.98;;;;;;;-8.20;90.05;140291.39;1600060;90;21052;-63
2021/12/24 08:41:06;;;;;;;37.25;16.97;;;;;;;-8.16;89.94;140301.27;1600898;88;21121;-64
2021/12/24 08:43:33;;;;;;;41.63;18.32;;;;;;;-8.09;89.97;140318.55;1601246;88;21163;-63
2021/12/24 08:46:01;;;;;;;34.35;15.35;;;;;;;-8.01;89.75;140335.78;1601157;88;21089;-66
2021/12/24 08:48:27;;;;;;;29.10;13.68;;;;;;;-7.97;89.61;140345.66;1601171;88;21088;-65
2021/12/24 08:50:53;;;;;;;29.80;15.98;;;;;;;-7.94;89.53;140354.28;1601141;88;21594;-66
2021/12/24 08:53:23;;;;;;;31.87;15.15;;;;;;;-7.82;89.57;140382.69;1601182;88;21069;-64
2021/12/24 08:55:49;;;;;;;29.42;15.60;;;;;;;-7.79;89.22;140390.06;1601393;88;21085;-69
2021/12/24 08:58:15;;;;;;;28.47;14.93;;;;;;;-7.71;89.23;140409.84;1600336;88;21076;-63
2021/12/24 09:00:42;;;;;;;33.30;15.10;;;;;;;-7.63;89.13;140428.36;1609558;88;21110;-66
2021/12/24 09:03:09;;;;;;;33.67;16.97;;;;;;;-7.64;89.06;140427.09;1599726;88;21163;-64
2021/12/24 09:05:36;;;;;;;20.12;9.15;;;;;;;-7.61;89.19;140433.25;1636000;86;21019;-64
2021/12/24 09:08:03;;;;;;;31.55;15.32;;;;;;;-7.58;89.27;140439.44;1639423;86;21098;-66
2021/12/24 09:10:29;;;;;;;31.73;14.53;;;;;;;-7.50;89.21;140459.22;1613494;88;21563;-63
2021/12/24 09:12:56;;;;;;;25.75;12.30;;;;;;;-7.46;89.20;140469.06;1631597;86;21075;-65
2021/12/24 09:15:29;;;;;;;32.98;14.50;;;;;;;-7.47;89.23;140467.83;1623374;87;21123;-64
2021/12/24 09:17:52;;;;;;;32.50;15.53;;;;;;;-7.43;89.34;140476.45;1623027;88;21157;-63
2021/12/24 09:20:26;;;;;;;27.22;13.28;;;;;;;-7.38;89.35;140488.80;1619890;87;21100;-61
2021/12/24 09:22:54;;;;;;;29.55;14.05;;;;;;;-7.30;89.43;140508.59;1632347;86;21039;-64
2021/12/24 09:25:22;;;;;;;26.40;14.07;;;;;;;-7.19;89.28;140534.50;1612322;88;21001;-63
2021/12/24 09:27:49;;;;;;;32.10;16.27;;;;;;;-7.13;89.08;140548.06;1600164;89;21065;-62
2021/12/24 09:30:16;;;;;;;28.75;13.62;;;;;;;-7.05;88.96;140567.81;1599818;90;21501;-62
2021/12/24 09:32:42;;;;;;;29.95;14.87;;;;;;;-6.91;88.76;140602.41;1599660;88;21038;-66
2021/12/24 09:35:10;;;;;;;27.05;11.50;;;;;;;-6.84;88.47;140618.48;1631548;86;21043;-64
2021/12/24 09:37:38;;;;;;;30.45;14.87;;;;;;;-6.64;88.19;140667.89;1595957;89;21103;-65
2021/12/24 09:40:07;;;;;;;31.12;14.58;;;;;;;-6.43;87.60;140718.53;1605553;88;21031;-66
2021/12/24 09:42:35;;;;;;;22.55;10.93;;;;;;;-6.34;86.94;140739.50;1624486;87;21040;-65
2021/12/24 09:45:04;;;;;;;25.15;13.50;;;;;;;-6.25;86.38;140760.55;1608510;87;21576;-63
2021/12/24 09:47:32;;;;;;;21.50;12.37;;;;;;;-6.28;86.37;140753.09;1599471;88;21036;-65
2021/12/24 09:49:59;;;;;;;26.97;11.10;;;;;;;-6.31;86.39;140745.69;1599477;88;21116;-68
2021/12/24 09:52:27;;;;;;;27.02;13.55;;;;;;;-6.36;86.85;140735.83;1609741;88;21047;-64
2021/12/24 09:54:53;;;;;;;28.57;15.85;;;;;;;-6.36;87.27;140735.83;1599582;88;21032;-62
2021/12/24 09:57:20;;;;;;;22.05;10.68;;;;;;;-6.29;87.45;140751.86;1628427;87;21065;-65
2021/12/24 09:59:47;;;;;;;27.65;13.93;;;;;;;-6.32;87.28;140743.23;1628403;87;21020;-66
2021/12/24 10:02:19;;;;;;;28.32;15.03;;;;;;;-6.33;88.06;140742.00;1616585;87;21055;-63
2021/12/24 10:04:47;;;;;;;26.15;14.20;;;;;;;-6.25;88.27;140761.77;1616556;87;21099;-64
2021/12/24 10:07:16;;;;;;;30.90;15.08;;;;;;;-6.19;88.59;140775.34;1616567;89;21063;-61
2021/12/24 10:09:46;;;;;;;30.43;14.45;;;;;;;-6.13;88.47;140790.16;1616519;87;21191;-62
2021/12/24 10:12:21;;;;;;;28.47;15.35;;;;;;;-6.25;88.98;140760.55;1616525;87;21051;-61
2021/12/24 10:14:58;;;;;;;28.35;14.60;;;;;;;-6.28;89.92;140754.36;1614410;88;21068;-64
2021/12/24 10:17:34;;;;;;;33.13;14.87;;;;;;;-6.22;90.15;140767.94;1600799;88;21058;-62
2021/12/24 10:20:07;;;;;;;26.20;13.98;;;;;;;-6.09;89.90;140800.06;1613695;87;21535;-64
2021/12/24 10:22:43;;;;;;;29.40;14.70;;;;;;;-6.01;89.89;140819.83;1617877;87;21091;-61
2021/12/24 10:25:12;;;;;;;25.72;11.97;;;;;;;-6.00;89.82;140822.33;1613891;87;21049;-63
2021/12/24 10:27:39;;;;;;;20.48;11.78;;;;;;;-6.02;89.88;140817.38;1600154;88;21084;-66
2021/12/24 10:30:18;;;;;;;22.98;12.73;;;;;;;-6.12;90.42;140793.89;1627280;87;21065;-66
2021/12/24 10:32:47;;;;;;;23.55;13.20;;;;;;;-6.16;90.88;140782.75;1599892;88;21077;-63
2021/12/24 10:35:20;;;;;;;19.02;9.70;;;;;;;-6.13;91.42;140790.16;1598757;90;21163;-62
2021/12/24 10:37:46;;;;;;;17.67;10.25;;;;;;;-6.13;91.02;140790.16;1626628;87;21073;-62
2021/12/24 10:40:13;;;;;;;18.40;11.15;;;;;;;-6.15;91.15;140786.48;1627365;87;21033;-65
2021/12/24 10:42:42;;;;;;;22.73;10.30;;;;;;;-6.16;91.48;140782.75;1627175;87;21041;-61
2021/12/24 10:45:15;;;;;;;22.42;12.55;;;;;;;-6.09;91.54;140800.06;1600236;88;21574;-65
2021/12/24 10:47:43;;;;;;;18.75;11.03;;;;;;;-6.02;91.29;140817.38;1598665;88;21068;-62
2021/12/24 10:53:18;;;;;;;21.90;9.90;;;;;;;-5.98;91.25;140827.28;1627179;87;21097;-61
2021/12/24 10:55:52;;;;;;;17.35;10.80;;;;;;;-6.05;91.31;140809.97;1626786;87;21113;-61
2021/12/24 10:58:21;;;;;;;18.98;9.88;;;;;;;-6.07;91.74;140805.02;1627251;88;21056;-66
2021/12/24 11:00:54;;;;;;;22.10;10.78;;;;;;;-6.10;91.98;140797.63;1627229;87;21152;-62
2021/12/24 11:03:23;;;;;;;20.90;10.90;;;;;;;-6.07;92.22;140805.02;1599926;89;21073;-64
2021/12/24 11:05:53;;;;;;;20.12;10.30;;;;;;;-6.05;92.36;140809.97;1627291;88;21069;-62
2021/12/24 11:08:25;;;;;;;17.23;10.15;;;;;;;-5.96;92.36;140832.19;1627427;87;21174;-62
2021/12/24 11:10:56;;;;;;;21.50;11.18;;;;;;;-5.83;92.04;140863.05;1599927;88;21578;-66
2021/12/24 11:13:32;;;;;;;;;;;;;;;-5.84;91.93;140859.38;1602637;88;21057;-61
2021/12/24 11:16:02;;;;;;;19.90;11.83;;;;;;;-5.76;92.00;140879.14;1599035;89;20128;-63
2021/12/24 11:18:34;;;;;;;17.37;10.30;;;;;;;-5.76;91.90;140880.38;1627414;87;21037;-64
2021/12/24 11:21:04;;;;;;;19.43;11.30;;;;;;;-5.78;92.00;140874.19;1600403;88;21049;-63
2021/12/24 11:23:33;;;;;;;19.27;10.93;;;;;;;-5.76;91.98;140880.38;1627330;87;21345;-63
2021/12/24 11:26:03;;;;;;;26.80;11.15;;;;;;;-5.78;92.14;140874.19;1627059;87;21026;-63
2021/12/24 11:28:32;;;;;;;19.17;10.93;;;;;;;-5.83;92.43;140861.83;1600288;88;21033;-66
2021/12/24 11:31:02;;;;;;;20.37;10.75;;;;;;;-5.83;92.76;140861.83;1600160;88;21105;-64
2021/12/24 11:33:30;;;;;;;19.37;11.10;;;;;;;-5.87;93.10;140851.97;1627268;88;21468;-59
2021/12/24 11:36:00;;;;;;;19.62;11.57;;;;;;;-5.93;93.56;140839.59;1600127;88;21038;-66
2021/12/24 11:38:29;;;;;;;23.32;12.03;;;;;;;-5.89;93.73;140848.23;1600058;90;21064;-64
2021/12/24 11:40:58;;;;;;;20.12;11.88;;;;;;;-5.83;93.91;140861.83;1627040;88;21029;-62
2021/12/24 11:43:28;;;;;;;19.60;11.78;;;;;;;-5.84;93.73;140859.38;1626938;87;21045;-60
2021/12/24 11:45:58;;;;;;;18.02;8.98;;;;;;;-5.89;94.12;140848.23;1627306;88;21017;-63
2021/12/24 11:48:27;;;;;;;20.82;11.97;;;;;;;-5.84;94.30;140859.38;1626676;87;21101;-61
2021/12/24 11:50:55;;;;;;;26.62;14.53;;;;;;;-5.81;94.20;140868.00;1600119;88;21168;-65
2021/12/24 11:53:22;;;;;;;21.17;12.78;;;;;;;-5.80;94.34;140869.23;1627009;87;21069;-62
2021/12/24 11:55:49;;;;;;;25.90;13.95;;;;;;;-5.76;94.64;140879.14;1599951;88;21627;-62
2021/12/24 11:58:22;;;;;;;28.83;12.20;;;;;;;-5.71;94.47;140891.50;1600049;88;21114;-62
2021/12/24 12:00:52;;;;;;;26.12;12.65;;;;;;;-5.69;94.26;140896.45;1600044;89;21104;-61
2021/12/24 12:03:37;;;;;;;21.15;11.45;;;;;;;-5.63;94.43;140911.28;1600167;88;21054;-62
2021/12/24 12:06:07;;;;;;;28.25;11.63;;;;;;;-5.58;94.14;140923.64;1626094;87;21265;-61
2021/12/24 12:08:37;;;;;;;25.20;12.28;;;;;;;-5.51;94.19;140940.95;1626992;87;21088;-63
2021/12/24 12:11:07;;;;;;;26.75;12.68;;;;;;;-5.43;94.11;140958.28;1600459;88;21101;-65
2021/12/24 12:13:40;;;;;;;22.37;12.18;;;;;;;-5.41;93.71;140963.23;1627379;87;21077;-63
2021/12/24 12:16:09;;;;;;;22.95;13.00;;;;;;;-5.42;93.76;140960.73;1627163;87;21041;-64
2021/12/24 12:18:45;;;;;;;21.87;12.43;;;;;;;-5.42;93.98;140960.73;1627011;87;21105;-65
2021/12/24 12:21:15;;;;;;;22.67;13.85;;;;;;;-5.40;94.01;140965.69;1627304;87;21516;-65
2021/12/24 12:24:56;;;;;;;21.77;12.65;;;;;;;-5.39;94.06;140968.14;1600146;88;21037;-63
2021/12/24 12:26:49;;;;;;;23.75;11.60;;;;;;;-5.31;94.04;140989.19;1623755;88;21065;-63
2021/12/24 12:29:25;;;;;;;22.05;13.22;;;;;;;-5.22;93.87;141008.97;1627341;88;21053;-63
2021/12/24 12:32:05;;;;;;;26.65;14.28;;;;;;;-5.24;93.70;141006.52;1600002;88;21085;-65
2021/12/24 12:34:41;;;;;;;27.62;14.73;;;;;;;-5.30;93.84;140990.42;1597383;88;21061;-60
2021/12/24 12:37:14;;;;;;;24.20;13.22;;;;;;;-5.37;94.18;140973.09;1626992;87;21065;-62
2021/12/24 12:39:42;;;;;;;23.85;13.10;;;;;;;-5.36;94.63;140975.59;1627283;87;21110;-63
2021/12/24 12:42:08;;;;;;;26.68;13.58;;;;;;;-5.40;94.71;140966.91;1600041;88;21590;-64
2021/12/24 12:44:39;;;;;;;21.20;12.88;;;;;;;-5.36;94.70;140975.59;1627358;87;21058;-64
2021/12/24 12:47:12;;;;;;;20.90;12.73;;;;;;;-5.36;94.81;140976.83;1600299;88;21045;-64
2021/12/24 12:49:39;;;;;;;22.48;13.55;;;;;;;-5.33;94.87;140983.02;1627215;88;21005;-64
2021/12/24 12:52:16;;;;;;;25.75;12.98;;;;;;;-5.33;94.85;140983.02;1627320;88;21005;-64
2021/12/24 12:54:49;;;;;;;21.00;13.28;;;;;;;-5.33;94.94;140983.02;1626535;87;21057;-67